Flight Track Log - Related Links

Times and Time Zones

All times are in EDT time to prevent confusion due to time zone crossing. See the SKW5606 flight status page for this flight to view local times or setup timezone preferences in your user account.

Time Position Orientation Groundspeed Altitude Reporting Facility
EDT Latitude Longitude Course Direction KTS MPH feet Rate Location/Type
Wed 08:26:26 AM 42.0167 -87.8333 90° East 196 226 3,800  Level Chicago TRACON
Wed 08:27:26 AM 42.0500 -87.7500 62° Northeast 266 306 6,400 2,286 Climbing Chicago TRACON
Wed 08:29:00 AM 42.0983 -87.0604 77° East  Level FlightAware Approximate
Wed 08:29:56 AM 42.0708 -87.4867 84° East 325 374 11,800  Level Chicago Center
Wed 08:30:00 AM 42.1167 -86.8901 90° East  Level FlightAware Approximate
Wed 08:30:57 AM 42.0872 -87.3306 82° East 348 400 14,800  Level Chicago Center
Wed 08:31:00 AM 42.1167 -86.7420 90° East  Level FlightAware Approximate
Wed 08:31:59 AM 42.0994 -87.1989 83° East 354 407 16,500  Level Chicago Center
Wed 08:33:01 AM 42.1122 -87.0556 83° East 380 437 17,900 1,597 Climbing Chicago Center
Wed 08:34:03 AM 42.1181 -86.9117 87° East 386 444 19,800 1,707 Climbing Chicago Center
Wed 08:35:04 AM 42.1228 -86.7661 87° East 390 449 21,400 1,317 Climbing Chicago Center
Wed 08:36:06 AM 42.1283 -86.6206 87° East 405 466 22,500 1,258 Climbing Chicago Center
Wed 08:37:08 AM 42.1344 -86.4325 87° East 417 480 24,000 1,306 Climbing Chicago Center
Wed 08:38:10 AM 42.1392 -86.2725 88° East 426 490 25,200 1,171 Climbing Chicago Center
Wed 08:39:11 AM 42.1442 -86.1097 88° East 431 496 26,400 1,073 Climbing Chicago Center
Wed 08:40:13 AM 42.1422 -85.9325 91° East 438 504 27,400 968 Climbing Chicago Center
Wed 08:41:15 AM 42.1414 -85.7653 90° East 446 513 28,400 774 Climbing Chicago Center
Wed 08:42:17 AM 42.1383 -85.5981 91° East 448 516 29,000 293 Climbing Chicago Center
Wed 08:43:18 AM 42.1367 -85.4197 91° East 470 541 29,000 462 Level Chicago Center
Wed 08:44:27 AM 42.1358 -85.2011 90° East 462 532 30,000 791 Climbing Cleveland Center
Wed 08:45:27 AM 42.1367 -85.0219 90° East 467 537 30,700 700 Climbing Cleveland Center
Wed 08:46:27 AM 42.1350 -84.8453 91° East 467 537 31,400 700 Climbing Cleveland Center
Wed 08:47:27 AM 42.1481 -84.6642 84° East 472 543 32,100 700 Climbing Cleveland Center
Wed 08:48:27 AM 42.1556 -84.5075 86° East 472 543 32,800 450 Climbing Cleveland Center
Wed 08:49:27 AM 42.1700 -84.3264 84° East 477 549 33,000 100 Climbing Cleveland Center
Wed 08:50:27 AM 42.1839 -84.1506 84° East 477 549 33,000  Level Cleveland Center
Wed 08:51:27 AM 42.1975 -83.9719 84° East 477 549 33,000  Level Cleveland Center
Wed 08:53:27 AM 42.2197 -83.6308 85° East 465 535 33,000  Level Cleveland Center
Wed 08:54:27 AM 42.2325 -83.4550 84° East 458 527 33,000  Level Cleveland Center
Wed 08:55:27 AM 42.2469 -83.2872 83° East 453 521 33,000  Level Cleveland Center
Wed 08:56:27 AM 42.2556 -83.0994 86° East 453 521 33,000  Level Cleveland Center
Wed 08:57:27 AM 42.2672 -82.9344 84° East 453 521 33,000  Level Cleveland Center
Wed 08:58:27 AM 42.2769 -82.7636 86° East 453 521 33,000  Level Cleveland Center
Wed 08:59:27 AM 42.2883 -82.5956 85° East 453 521 33,000  Level Cleveland Center
Wed 09:00:27 AM 42.2972 -82.4303 86° East 447 514 33,000  Level Cleveland Center
Wed 09:01:27 AM 42.3083 -82.2592 85° East 447 514 33,000  Level Cleveland Center
Wed 09:02:27 AM 42.3169 -82.0911 86° East 447 514 33,000  Level Cleveland Center
Wed 09:03:27 AM 42.3272 -81.9425 85° East 447 514 33,000  Level Cleveland Center
Wed 09:04:27 AM 42.3353 -81.7714 86° East 447 514 33,000  Level Cleveland Center
Wed 09:05:27 AM 42.3453 -81.6028 85° East 447 514 33,000  Level Cleveland Center
Wed 09:06:27 AM 42.3528 -81.4344 86° East 447 514 33,000  Level Cleveland Center
Wed 09:07:27 AM 42.3622 -81.2661 86° East 447 514 33,000  Level Cleveland Center
Wed 09:08:27 AM 42.3717 -81.0806 86° East 447 514 33,000  Level Cleveland Center
Wed 09:09:27 AM 42.3806 -80.9092 86° East 452 520 33,000  Level Cleveland Center
Wed 09:10:27 AM 42.3872 -80.7406 87° East 452 520 33,000  Level Cleveland Center
Wed 09:11:27 AM 42.3914 -80.5747 88° East 446 513 33,000  Level Cleveland Center
Wed 09:12:27 AM 42.4017 -80.4089 85° East 439 505 33,000  Level Cleveland Center
Wed 09:13:27 AM 42.4075 -80.2372 87° East 447 514 33,000  Level Cleveland Center
Wed 09:14:27 AM 42.4175 -80.0686 85° East 447 514 33,000  Level Cleveland Center
Wed 09:15:27 AM 42.4208 -79.9139 88° East 447 514 33,000  Level Cleveland Center
Wed 09:16:27 AM 42.4258 -79.7197 88° East 457 526 33,000  Level Cleveland Center
Wed 09:17:27 AM 42.4328 -79.5647 86° East 462 532 33,000  Level Cleveland Center
Wed 09:18:27 AM 42.4394 -79.3875 87° East 462 532 33,000  Level Cleveland Center
Wed 09:19:27 AM 42.4436 -79.2103 88° East 468 539 33,000  Level Cleveland Center
Wed 09:20:27 AM 42.4497 -79.0328 87° East 468 539 33,000  Level Cleveland Center
Wed 09:21:27 AM 42.4556 -78.8497 87° East 475 547 33,000  Level Cleveland Center
Wed 09:22:27 AM 42.4592 -78.6750 88° East 475 547 33,000  Level Cleveland Center
Wed 09:23:27 AM 42.4644 -78.5003 88° East 475 547 33,000  Level Cleveland Center
Wed 09:24:27 AM 42.4694 -78.3256 88° East 468 539 33,000  Level Cleveland Center
Wed 09:25:27 AM 42.4722 -78.1567 89° East 458 527 33,000  Level Cleveland Center
Wed 09:26:27 AM 42.4747 -77.9847 89° East 458 527 33,000  Level Cleveland Center
Wed 09:27:27 AM 42.4789 -77.8017 88° East 458 527 33,000  Level Cleveland Center
Wed 09:28:27 AM 42.4808 -77.6297 89° East 453 521 33,000  Level Cleveland Center
Wed 09:29:27 AM 42.4847 -77.4578 88° East 453 521 33,000  Level Cleveland Center
Wed 09:31:01 AM 42.4889 -77.1853 89° East 462 532 33,000  Level Boston Center
Wed 09:32:02 AM 42.4897 -77.0133 90° East 456 525 33,000  Level Boston Center
Wed 09:33:02 AM 42.4922 -76.8417 89° East 456 525 33,000  Level Boston Center
Wed 09:34:03 AM 42.4947 -76.6700 89° East 456 525 33,000  Level Boston Center
Wed 09:35:03 AM 42.4936 -76.5264 91° East 461 531 33,000 -50 Level Boston Center
Wed 09:36:02 AM 42.4653 -76.3244 101° East 456 525 32,900 -500 Descending Boston Center
Wed 09:37:03 AM 42.4333 -76.1564 104° East 456 525 32,000 -893 Descending Boston Center
Wed 09:38:03 AM 42.3969 -75.9883 106° East 461 531 31,100 -1,271 Descending Boston Center
Wed 09:39:01 AM 42.3622 -75.8292 106° East 456 525 29,500 -1,866 Descending Boston Center
Wed 09:40:02 AM 42.3294 -75.6700 106° East 450 518 27,400 -2,066 Descending Boston Center
Wed 09:41:03 AM 42.2981 -75.5194 106° East 436 502 25,300 -1,869 Descending Boston Center
Wed 09:42:04 AM 42.2744 -75.3919 104° East 436 502 23,600 -2,085 Descending Boston Center
Wed 09:43:01 AM 42.2369 -75.2219 107° East 413 475 21,200 -2,136 Descending Boston Center
Wed 09:44:02 AM 42.2086 -75.1031 108° East 394 453 19,400 -1,587 Descending Boston Center
Wed 09:45:02 AM 42.1783 -74.9728 107° East 377 434 18,000 -706 Descending Boston Center
Wed 09:46:01 AM 42.1350 -74.8564 117° Southeast 352 405 18,000  Level Boston Center
Wed 09:47:02 AM 42.0767 -74.7561 128° Southeast 346 398 18,000 -645 Level Boston Center
Wed 09:48:02 AM 42.0058 -74.6531 133° Southeast 335 386 16,700 -1,289 Descending Boston Center
Wed 09:49:03 AM 41.9447 -74.5697 135° Southeast 317 365 15,400 -1,190 Descending Boston Center
Wed 09:50:03 AM 41.8961 -74.5011 134° Southeast 317 365 14,300 -1,475 Descending Boston Center
Wed 09:51:01 AM 41.8228 -74.4014 135° Southeast 312 359 12,500 -1,576 Descending Boston Center
Wed 09:52:01 AM 41.7617 -74.3214 136° Southeast 312 359 11,200 -744 Descending Boston Center
Wed 09:53:02 AM 41.7025 -74.2419 135° Southeast 312 359 11,000 -246 Descending Boston Center
Wed 09:54:03 AM 41.6453 -74.1625 134° Southeast 307 353 10,700 -744 Descending Boston Center
Wed 09:55:03 AM 41.5881 -74.0889 136° Southeast 299 344 9,500 -1,143 Descending Boston Center
Wed 09:55:27 AM 41.5667 -74.0500 126° Southeast 279 321 9,100 -1,308 Descending New York TRACON
Wed 09:56:21 AM 41.5167 -73.9833 135° Southeast 278 320 7,800 -1,400 Descending New York TRACON
Wed 09:57:27 AM 41.4667 -73.9167 135° Southeast 274 315 6,300 -1,381 Descending New York TRACON
Wed 09:58:27 AM 41.4000 -73.8500 143° Southeast 264 304 4,900 -1,095 Descending New York TRACON
Wed 09:59:33 AM 41.3333 -73.7833 143° Southeast 234 269 4,000 -800 Descending New York TRACON
Wed 10:00:27 AM 41.3000 -73.7500 143° Southeast 229 264 3,300 -526 Descending New York TRACON
Wed 10:01:27 AM 41.2500 -73.6833 135° Southeast 225 259 3,000 -150 Descending New York TRACON
Wed 10:02:27 AM 41.2000 -73.6500 153° Southeast 212 244 3,000  Level New York TRACON
Wed 10:03:27 AM 41.1333 -73.6333 169° South 199 229 3,000  Level New York TRACON
Wed 10:04:27 AM 41.1000 -73.6000 143° Southeast 185 213 3,000  Level New York TRACON
Wed 10:05:33 AM 41.0500 -73.5667 153° Southeast 185 213 3,000 -143 Level New York TRACON
Wed 10:06:33 AM 41.0000 -73.5667 180° South 188 216 2,700 -368 Descending New York TRACON
Wed 10:07:27 AM 40.9833 -73.6167 246° West 177 204 2,300 -421 Descending New York TRACON
Wed 10:08:27 AM 41.0000 -73.6500 304° West 157 181 1,900 -650 Descending New York TRACON
Wed 10:09:27 AM 41.0333 -73.6833 323° Northwest 132 152 1,000 -900 Descending New York TRACON
Wed 10:11:00 AM 41.0667 -73.7000 304° West  Level FlightAware Approximate
Wed 10:18:00 AM 41.0669 -73.7076 304° West  Level Estimated

Login

Don't have an account? Register now (free) for customized features, flight alerts, and more!